sensor_id;sensor_type;location;lat;lon;timestamp;P1;durP1;ratioP1;P2;durP2;ratioP2
7807;SDS011;3949;49.254;8.894;2023-09-12T00:01:33;8.73;;;7.60;;
7807;SDS011;3949;49.254;8.894;2023-09-12T00:03:59;8.67;;;7.43;;
7807;SDS011;3949;49.254;8.894;2023-09-12T00:06:25;10.07;;;8.27;;
7807;SDS011;3949;49.254;8.894;2023-09-12T00:08:51;8.20;;;7.47;;
7807;SDS011;3949;49.254;8.894;2023-09-12T00:11:17;11.13;;;7.93;;
7807;SDS011;3949;49.254;8.894;2023-09-12T00:13:44;8.07;;;7.27;;
7807;SDS011;3949;49.254;8.894;2023-09-12T00:16:10;8.60;;;7.53;;
7807;SDS011;3949;49.254;8.894;2023-09-12T00:18:39;8.67;;;7.37;;
7807;SDS011;3949;49.254;8.894;2023-09-12T00:21:05;8.10;;;7.30;;
7807;SDS011;3949;49.254;8.894;2023-09-12T00:23:31;8.83;;;7.50;;
7807;SDS011;3949;49.254;8.894;2023-09-12T00:25:57;9.57;;;7.73;;
7807;SDS011;3949;49.254;8.894;2023-09-12T00:28:23;8.97;;;7.57;;
7807;SDS011;3949;49.254;8.894;2023-09-12T00:30:49;10.33;;;7.37;;
7807;SDS011;3949;49.254;8.894;2023-09-12T00:33:15;10.10;;;8.10;;
7807;SDS011;3949;49.254;8.894;2023-09-12T00:35:41;8.33;;;7.43;;
7807;SDS011;3949;49.254;8.894;2023-09-12T00:38:09;11.73;;;8.47;;
7807;SDS011;3949;49.254;8.894;2023-09-12T00:40:35;13.07;;;9.10;;
7807;SDS011;3949;49.254;8.894;2023-09-12T00:43:02;11.80;;;9.00;;
7807;SDS011;3949;49.254;8.894;2023-09-12T00:45:28;12.60;;;9.60;;
7807;SDS011;3949;49.254;8.894;2023-09-12T00:47:54;10.17;;;9.03;;
7807;SDS011;3949;49.254;8.894;2023-09-12T00:50:21;9.27;;;8.37;;
7807;SDS011;3949;49.254;8.894;2023-09-12T00:52:48;12.80;;;9.37;;
7807;SDS011;3949;49.254;8.894;2023-09-12T00:55:14;11.63;;;8.57;;
7807;SDS011;3949;49.254;8.894;2023-09-12T00:57:41;10.17;;;8.23;;
7807;SDS011;3949;49.254;8.894;2023-09-12T01:00:07;9.63;;;8.37;;
7807;SDS011;3949;49.254;8.894;2023-09-12T01:02:43;9.93;;;8.93;;
7807;SDS011;3949;49.254;8.894;2023-09-12T01:05:11;9.97;;;8.57;;
7807;SDS011;3949;49.254;8.894;2023-09-12T01:07:37;10.03;;;8.33;;
7807;SDS011;3949;49.254;8.894;2023-09-12T01:10:04;10.67;;;8.37;;
7807;SDS011;3949;49.254;8.894;2023-09-12T01:12:30;11.43;;;8.10;;
7807;SDS011;3949;49.254;8.894;2023-09-12T01:14:56;9.33;;;7.57;;
7807;SDS011;3949;49.254;8.894;2023-09-12T01:17:22;8.13;;;7.00;;
7807;SDS011;3949;49.254;8.894;2023-09-12T01:19:49;11.53;;;8.27;;
7807;SDS011;3949;49.254;8.894;2023-09-12T01:22:21;10.43;;;7.90;;
7807;SDS011;3949;49.254;8.894;2023-09-12T01:24:59;9.70;;;8.33;;
7807;SDS011;3949;49.254;8.894;2023-09-12T01:27:32;11.60;;;8.97;;
7807;SDS011;3949;49.254;8.894;2023-09-12T01:30:04;10.87;;;9.43;;
7807;SDS011;3949;49.254;8.894;2023-09-12T01:32:33;10.13;;;8.67;;
7807;SDS011;3949;49.254;8.894;2023-09-12T01:35:00;11.33;;;9.00;;
7807;SDS011;3949;49.254;8.894;2023-09-12T01:37:29;10.60;;;8.57;;
7807;SDS011;3949;49.254;8.894;2023-09-12T01:39:55;10.27;;;8.70;;
7807;SDS011;3949;49.254;8.894;2023-09-12T01:42:21;9.03;;;8.13;;
7807;SDS011;3949;49.254;8.894;2023-09-12T01:44:49;14.07;;;9.17;;
7807;SDS011;3949;49.254;8.894;2023-09-12T01:47:16;10.57;;;8.90;;
7807;SDS011;3949;49.254;8.894;2023-09-12T01:49:42;10.53;;;8.27;;
7807;SDS011;3949;49.254;8.894;2023-09-12T01:52:09;10.40;;;8.67;;
7807;SDS011;3949;49.254;8.894;2023-09-12T01:54:35;10.30;;;8.90;;
7807;SDS011;3949;49.254;8.894;2023-09-12T01:57:02;10.33;;;8.37;;
7807;SDS011;3949;49.254;8.894;2023-09-12T01:59:28;11.17;;;8.13;;
7807;SDS011;3949;49.254;8.894;2023-09-12T02:01:54;8.27;;;7.07;;
7807;SDS011;3949;49.254;8.894;2023-09-12T02:04:20;10.10;;;8.20;;
7807;SDS011;3949;49.254;8.894;2023-09-12T02:06:46;9.70;;;7.40;;
7807;SDS011;3949;49.254;8.894;2023-09-12T02:09:12;9.67;;;8.70;;
7807;SDS011;3949;49.254;8.894;2023-09-12T02:11:38;12.80;;;8.93;;
7807;SDS011;3949;49.254;8.894;2023-09-12T02:14:04;9.40;;;8.37;;
7807;SDS011;3949;49.254;8.894;2023-09-12T02:16:31;10.53;;;8.30;;
7807;SDS011;3949;49.254;8.894;2023-09-12T02:18:57;9.13;;;8.23;;
7807;SDS011;3949;49.254;8.894;2023-09-12T02:21:23;11.00;;;8.30;;
7807;SDS011;3949;49.254;8.894;2023-09-12T02:23:49;10.33;;;8.20;;
7807;SDS011;3949;49.254;8.894;2023-09-12T02:26:15;8.63;;;7.73;;
7807;SDS011;3949;49.254;8.894;2023-09-12T02:28:41;11.20;;;7.87;;
7807;SDS011;3949;49.254;8.894;2023-09-12T02:31:10;9.47;;;7.40;;
7807;SDS011;3949;49.254;8.894;2023-09-12T02:33:39;9.90;;;8.50;;
7807;SDS011;3949;49.254;8.894;2023-09-12T02:36:05;9.67;;;8.13;;
7807;SDS011;3949;49.254;8.894;2023-09-12T02:38:31;11.53;;;8.60;;
7807;SDS011;3949;49.254;8.894;2023-09-12T02:40:58;11.00;;;8.50;;
7807;SDS011;3949;49.254;8.894;2023-09-12T02:43:24;11.20;;;9.23;;
7807;SDS011;3949;49.254;8.894;2023-09-12T02:45:50;11.30;;;9.50;;
7807;SDS011;3949;49.254;8.894;2023-09-12T02:48:15;12.20;;;9.23;;
7807;SDS011;3949;49.254;8.894;2023-09-12T02:50:41;10.23;;;9.23;;
7807;SDS011;3949;49.254;8.894;2023-09-12T02:53:07;11.60;;;8.73;;
7807;SDS011;3949;49.254;8.894;2023-09-12T02:55:33;12.40;;;7.97;;
7807;SDS011;3949;49.254;8.894;2023-09-12T02:57:59;11.50;;;9.37;;
7807;SDS011;3949;49.254;8.894;2023-09-12T03:00:25;12.50;;;9.90;;
7807;SDS011;3949;49.254;8.894;2023-09-12T03:02:51;12.07;;;8.97;;
7807;SDS011;3949;49.254;8.894;2023-09-12T03:05:17;11.00;;;9.10;;
7807;SDS011;3949;49.254;8.894;2023-09-12T03:07:43;11.20;;;8.80;;
7807;SDS011;3949;49.254;8.894;2023-09-12T03:10:09;9.40;;;8.13;;
7807;SDS011;3949;49.254;8.894;2023-09-12T03:12:35;11.10;;;8.13;;
7807;SDS011;3949;49.254;8.894;2023-09-12T03:15:02;11.67;;;8.33;;
7807;SDS011;3949;49.254;8.894;2023-09-12T03:17:28;10.90;;;8.60;;
7807;SDS011;3949;49.254;8.894;2023-09-12T03:19:54;12.77;;;8.77;;
7807;SDS011;3949;49.254;8.894;2023-09-12T03:22:20;12.80;;;8.90;;
7807;SDS011;3949;49.254;8.894;2023-09-12T03:24:46;12.00;;;9.00;;
7807;SDS011;3949;49.254;8.894;2023-09-12T03:27:12;9.33;;;8.33;;
7807;SDS011;3949;49.254;8.894;2023-09-12T03:29:38;11.27;;;8.73;;
7807;SDS011;3949;49.254;8.894;2023-09-12T03:32:04;11.80;;;8.70;;
7807;SDS011;3949;49.254;8.894;2023-09-12T03:34:30;12.03;;;8.67;;
7807;SDS011;3949;49.254;8.894;2023-09-12T03:36:56;15.13;;;9.67;;
7807;SDS011;3949;49.254;8.894;2023-09-12T03:39:22;12.60;;;9.53;;
7807;SDS011;3949;49.254;8.894;2023-09-12T03:41:48;11.73;;;8.90;;
7807;SDS011;3949;49.254;8.894;2023-09-12T03:44:14;9.57;;;7.73;;
7807;SDS011;3949;49.254;8.894;2023-09-12T03:46:40;10.60;;;8.17;;
7807;SDS011;3949;49.254;8.894;2023-09-12T03:49:06;11.80;;;7.57;;
7807;SDS011;3949;49.254;8.894;2023-09-12T03:51:33;11.23;;;8.47;;
7807;SDS011;3949;49.254;8.894;2023-09-12T03:53:59;12.07;;;7.50;;
7807;SDS011;3949;49.254;8.894;2023-09-12T03:56:25;8.33;;;7.53;;
7807;SDS011;3949;49.254;8.894;2023-09-12T03:58:51;10.30;;;7.83;;
7807;SDS011;3949;49.254;8.894;2023-09-12T04:01:21;10.00;;;8.00;;
7807;SDS011;3949;49.254;8.894;2023-09-12T04:03:47;9.93;;;8.03;;
7807;SDS011;3949;49.254;8.894;2023-09-12T04:06:13;10.10;;;8.27;;
7807;SDS011;3949;49.254;8.894;2023-09-12T04:08:39;11.43;;;8.60;;
7807;SDS011;3949;49.254;8.894;2023-09-12T04:11:05;11.93;;;7.87;;
7807;SDS011;3949;49.254;8.894;2023-09-12T04:13:31;12.50;;;8.67;;
7807;SDS011;3949;49.254;8.894;2023-09-12T04:15:57;12.33;;;7.93;;
7807;SDS011;3949;49.254;8.894;2023-09-12T04:18:23;13.90;;;8.70;;
7807;SDS011;3949;49.254;8.894;2023-09-12T04:20:49;11.17;;;7.33;;
7807;SDS011;3949;49.254;8.894;2023-09-12T04:23:15;10.60;;;8.33;;
7807;SDS011;3949;49.254;8.894;2023-09-12T04:25:42;11.33;;;7.13;;
7807;SDS011;3949;49.254;8.894;2023-09-12T04:28:08;8.40;;;7.33;;
7807;SDS011;3949;49.254;8.894;2023-09-12T04:30:35;9.63;;;7.17;;
7807;SDS011;3949;49.254;8.894;2023-09-12T04:33:00;11.40;;;7.77;;
7807;SDS011;3949;49.254;8.894;2023-09-12T04:35:26;8.77;;;7.00;;
7807;SDS011;3949;49.254;8.894;2023-09-12T04:37:53;10.07;;;7.43;;
7807;SDS011;3949;49.254;8.894;2023-09-12T04:40:19;8.60;;;6.90;;
7807;SDS011;3949;49.254;8.894;2023-09-12T04:42:45;6.93;;;6.27;;
7807;SDS011;3949;49.254;8.894;2023-09-12T04:45:10;7.90;;;7.00;;
7807;SDS011;3949;49.254;8.894;2023-09-12T04:47:36;8.80;;;6.77;;
7807;SDS011;3949;49.254;8.894;2023-09-12T04:50:03;12.07;;;7.13;;
7807;SDS011;3949;49.254;8.894;2023-09-12T04:52:29;11.00;;;7.57;;
7807;SDS011;3949;49.254;8.894;2023-09-12T04:54:55;8.57;;;7.57;;
7807;SDS011;3949;49.254;8.894;2023-09-12T04:57:20;10.77;;;7.53;;
7807;SDS011;3949;49.254;8.894;2023-09-12T04:59:46;12.10;;;6.77;;
7807;SDS011;3949;49.254;8.894;2023-09-12T05:02:12;9.07;;;6.90;;
7807;SDS011;3949;49.254;8.894;2023-09-12T05:04:38;12.33;;;7.97;;
7807;SDS011;3949;49.254;8.894;2023-09-12T05:07:05;12.37;;;6.87;;
7807;SDS011;3949;49.254;8.894;2023-09-12T05:09:31;9.67;;;6.50;;
7807;SDS011;3949;49.254;8.894;2023-09-12T05:11:57;14.97;;;7.03;;
7807;SDS011;3949;49.254;8.894;2023-09-12T05:14:22;9.83;;;7.30;;
7807;SDS011;3949;49.254;8.894;2023-09-12T05:16:48;15.10;;;7.03;;
7807;SDS011;3949;49.254;8.894;2023-09-12T05:19:14;9.90;;;7.63;;
7807;SDS011;3949;49.254;8.894;2023-09-12T05:21:40;8.27;;;6.90;;
7807;SDS011;3949;49.254;8.894;2023-09-12T05:24:06;9.07;;;6.87;;
7807;SDS011;3949;49.254;8.894;2023-09-12T05:26:32;10.30;;;7.17;;
7807;SDS011;3949;49.254;8.894;2023-09-12T05:28:58;11.40;;;6.87;;
7807;SDS011;3949;49.254;8.894;2023-09-12T05:31:24;8.47;;;6.03;;
7807;SDS011;3949;49.254;8.894;2023-09-12T05:33:50;7.97;;;5.43;;
7807;SDS011;3949;49.254;8.894;2023-09-12T05:36:16;7.93;;;6.00;;
7807;SDS011;3949;49.254;8.894;2023-09-12T05:38:42;7.60;;;6.80;;
7807;SDS011;3949;49.254;8.894;2023-09-12T05:41:09;9.27;;;7.07;;
7807;SDS011;3949;49.254;8.894;2023-09-12T05:43:35;8.53;;;6.87;;
7807;SDS011;3949;49.254;8.894;2023-09-12T05:46:01;10.97;;;6.67;;
7807;SDS011;3949;49.254;8.894;2023-09-12T05:48:27;9.00;;;6.60;;
7807;SDS011;3949;49.254;8.894;2023-09-12T05:50:53;9.50;;;6.50;;
7807;SDS011;3949;49.254;8.894;2023-09-12T05:53:19;11.73;;;7.40;;
7807;SDS011;3949;49.254;8.894;2023-09-12T05:55:45;9.10;;;6.53;;
7807;SDS011;3949;49.254;8.894;2023-09-12T05:58:11;8.40;;;7.10;;
7807;SDS011;3949;49.254;8.894;2023-09-12T06:00:37;7.60;;;6.60;;
7807;SDS011;3949;49.254;8.894;2023-09-12T06:03:03;8.03;;;6.43;;
7807;SDS011;3949;49.254;8.894;2023-09-12T06:05:29;9.73;;;6.47;;
7807;SDS011;3949;49.254;8.894;2023-09-12T06:07:55;13.90;;;6.73;;
7807;SDS011;3949;49.254;8.894;2023-09-12T06:10:22;11.67;;;7.27;;
7807;SDS011;3949;49.254;8.894;2023-09-12T06:12:48;9.50;;;6.63;;
7807;SDS011;3949;49.254;8.894;2023-09-12T06:15:14;11.47;;;6.37;;
7807;SDS011;3949;49.254;8.894;2023-09-12T06:20:12;10.70;;;6.90;;
7807;SDS011;3949;49.254;8.894;2023-09-12T06:22:38;8.90;;;6.27;;
7807;SDS011;3949;49.254;8.894;2023-09-12T06:25:05;8.70;;;6.13;;
7807;SDS011;3949;49.254;8.894;2023-09-12T06:27:31;7.70;;;6.37;;
7807;SDS011;3949;49.254;8.894;2023-09-12T06:29:57;10.87;;;6.40;;
7807;SDS011;3949;49.254;8.894;2023-09-12T06:32:23;7.43;;;6.27;;
7807;SDS011;3949;49.254;8.894;2023-09-12T06:34:49;13.37;;;6.60;;
7807;SDS011;3949;49.254;8.894;2023-09-12T06:37:15;8.47;;;5.80;;
7807;SDS011;3949;49.254;8.894;2023-09-12T06:39:41;8.97;;;6.40;;
7807;SDS011;3949;49.254;8.894;2023-09-12T06:42:08;9.07;;;6.20;;
7807;SDS011;3949;49.254;8.894;2023-09-12T06:44:34;12.30;;;6.90;;
7807;SDS011;3949;49.254;8.894;2023-09-12T06:47:00;9.80;;;6.47;;
7807;SDS011;3949;49.254;8.894;2023-09-12T06:49:26;9.93;;;6.13;;
7807;SDS011;3949;49.254;8.894;2023-09-12T06:51:52;9.37;;;6.33;;
7807;SDS011;3949;49.254;8.894;2023-09-12T06:54:18;13.20;;;7.13;;
7807;SDS011;3949;49.254;8.894;2023-09-12T06:56:44;9.63;;;6.80;;
7807;SDS011;3949;49.254;8.894;2023-09-12T06:59:10;7.90;;;6.47;;
7807;SDS011;3949;49.254;8.894;2023-09-12T07:01:37;8.40;;;5.80;;
7807;SDS011;3949;49.254;8.894;2023-09-12T07:04:03;7.47;;;6.50;;
7807;SDS011;3949;49.254;8.894;2023-09-12T07:06:29;7.53;;;6.00;;
7807;SDS011;3949;49.254;8.894;2023-09-12T07:08:55;7.87;;;6.10;;
7807;SDS011;3949;49.254;8.894;2023-09-12T07:11:21;9.23;;;6.07;;
7807;SDS011;3949;49.254;8.894;2023-09-12T07:13:49;7.13;;;5.73;;
7807;SDS011;3949;49.254;8.894;2023-09-12T07:16:15;12.03;;;6.73;;
7807;SDS011;3949;49.254;8.894;2023-09-12T07:18:41;11.23;;;5.90;;
7807;SDS011;3949;49.254;8.894;2023-09-12T07:21:07;8.63;;;6.43;;
7807;SDS011;3949;49.254;8.894;2023-09-12T07:23:35;8.27;;;5.77;;
7807;SDS011;3949;49.254;8.894;2023-09-12T07:26:01;8.27;;;5.67;;
7807;SDS011;3949;49.254;8.894;2023-09-12T07:28:27;6.93;;;5.77;;
7807;SDS011;3949;49.254;8.894;2023-09-12T07:30:54;10.00;;;6.20;;
7807;SDS011;3949;49.254;8.894;2023-09-12T07:33:20;10.10;;;6.43;;
7807;SDS011;3949;49.254;8.894;2023-09-12T07:35:46;9.73;;;6.13;;
7807;SDS011;3949;49.254;8.894;2023-09-12T07:38:13;7.33;;;5.63;;
7807;SDS011;3949;49.254;8.894;2023-09-12T07:40:42;7.70;;;5.60;;
7807;SDS011;3949;49.254;8.894;2023-09-12T07:43:08;7.27;;;6.27;;
7807;SDS011;3949;49.254;8.894;2023-09-12T07:45:34;9.90;;;5.60;;
7807;SDS011;3949;49.254;8.894;2023-09-12T07:48:06;7.80;;;6.07;;
7807;SDS011;3949;49.254;8.894;2023-09-12T07:50:32;8.03;;;5.93;;
7807;SDS011;3949;49.254;8.894;2023-09-12T07:52:58;7.03;;;5.67;;
7807;SDS011;3949;49.254;8.894;2023-09-12T07:55:23;9.53;;;6.13;;
7807;SDS011;3949;49.254;8.894;2023-09-12T07:57:49;9.37;;;6.50;;
7807;SDS011;3949;49.254;8.894;2023-09-12T08:00:15;11.13;;;6.83;;
7807;SDS011;3949;49.254;8.894;2023-09-12T08:02:42;10.20;;;6.53;;
7807;SDS011;3949;49.254;8.894;2023-09-12T08:05:08;10.57;;;6.50;;
7807;SDS011;3949;49.254;8.894;2023-09-12T08:07:34;8.80;;;6.13;;
7807;SDS011;3949;49.254;8.894;2023-09-12T08:10:00;10.97;;;6.47;;
7807;SDS011;3949;49.254;8.894;2023-09-12T08:12:28;8.07;;;6.20;;
7807;SDS011;3949;49.254;8.894;2023-09-12T08:14:54;6.93;;;6.23;;
7807;SDS011;3949;49.254;8.894;2023-09-12T08:17:20;8.63;;;6.00;;
7807;SDS011;3949;49.254;8.894;2023-09-12T08:19:46;9.53;;;5.77;;
7807;SDS011;3949;49.254;8.894;2023-09-12T08:22:12;7.57;;;6.17;;
7807;SDS011;3949;49.254;8.894;2023-09-12T08:24:38;8.43;;;6.30;;
7807;SDS011;3949;49.254;8.894;2023-09-12T08:27:04;10.07;;;6.07;;
7807;SDS011;3949;49.254;8.894;2023-09-12T08:29:31;7.33;;;5.87;;
7807;SDS011;3949;49.254;8.894;2023-09-12T08:31:57;9.13;;;6.20;;
7807;SDS011;3949;49.254;8.894;2023-09-12T08:34:24;7.37;;;5.93;;
7807;SDS011;3949;49.254;8.894;2023-09-12T08:36:50;7.87;;;5.63;;
7807;SDS011;3949;49.254;8.894;2023-09-12T08:39:17;10.23;;;6.68;;
7807;SDS011;3949;49.254;8.894;2023-09-12T08:41:43;8.27;;;6.22;;
7807;SDS011;3949;49.254;8.894;2023-09-12T08:44:11;6.70;;;6.10;;
7807;SDS011;3949;49.254;8.894;2023-09-12T08:46:37;7.32;;;6.28;;
7807;SDS011;3949;49.254;8.894;2023-09-12T08:49:04;8.10;;;5.93;;
7807;SDS011;3949;49.254;8.894;2023-09-12T08:51:31;8.10;;;6.55;;
7807;SDS011;3949;49.254;8.894;2023-09-12T08:53:58;8.93;;;6.32;;
7807;SDS011;3949;49.254;8.894;2023-09-12T08:56:24;7.57;;;6.07;;
7807;SDS011;3949;49.254;8.894;2023-09-12T08:58:50;8.75;;;5.95;;
7807;SDS011;3949;49.254;8.894;2023-09-12T09:01:18;7.03;;;6.22;;
7807;SDS011;3949;49.254;8.894;2023-09-12T09:03:44;8.13;;;6.55;;
7807;SDS011;3949;49.254;8.894;2023-09-12T09:06:10;7.05;;;6.00;;
7807;SDS011;3949;49.254;8.894;2023-09-12T09:08:36;8.50;;;5.13;;
7807;SDS011;3949;49.254;8.894;2023-09-12T09:11:02;7.38;;;5.93;;
7807;SDS011;3949;49.254;8.894;2023-09-12T09:13:30;7.30;;;6.55;;
7807;SDS011;3949;49.254;8.894;2023-09-12T09:21:17;7.15;;;5.38;;
7807;SDS011;3949;49.254;8.894;2023-09-12T09:23:45;9.77;;;6.75;;
7807;SDS011;3949;49.254;8.894;2023-09-12T09:26:11;9.93;;;6.40;;
7807;SDS011;3949;49.254;8.894;2023-09-12T09:28:37;8.90;;;5.90;;
7807;SDS011;3949;49.254;8.894;2023-09-12T09:31:04;6.03;;;5.43;;
7807;SDS011;3949;49.254;8.894;2023-09-12T09:33:34;8.68;;;6.50;;
7807;SDS011;3949;49.254;8.894;2023-09-12T09:36:02;6.90;;;6.20;;
7807;SDS011;3949;49.254;8.894;2023-09-12T09:38:29;6.78;;;5.82;;
7807;SDS011;3949;49.254;8.894;2023-09-12T09:40:55;8.68;;;6.07;;
7807;SDS011;3949;49.254;8.894;2023-09-12T09:43:21;7.00;;;5.70;;
7807;SDS011;3949;49.254;8.894;2023-09-12T09:45:47;7.25;;;5.47;;
7807;SDS011;3949;49.254;8.894;2023-09-12T09:48:22;7.18;;;6.45;;
7807;SDS011;3949;49.254;8.894;2023-09-12T09:50:48;9.80;;;8.10;;
7807;SDS011;3949;49.254;8.894;2023-09-12T09:53:14;7.47;;;6.82;;
7807;SDS011;3949;49.254;8.894;2023-09-12T09:55:40;8.65;;;6.18;;
7807;SDS011;3949;49.254;8.894;2023-09-12T09:58:07;6.43;;;5.65;;
7807;SDS011;3949;49.254;8.894;2023-09-12T10:00:34;7.22;;;6.43;;
7807;SDS011;3949;49.254;8.894;2023-09-12T10:03:05;7.22;;;5.80;;
7807;SDS011;3949;49.254;8.894;2023-09-12T10:05:31;6.22;;;5.32;;
7807;SDS011;3949;49.254;8.894;2023-09-12T10:07:58;7.22;;;6.47;;
7807;SDS011;3949;49.254;8.894;2023-09-12T10:10:25;10.85;;;6.13;;
7807;SDS011;3949;49.254;8.894;2023-09-12T10:12:57;7.25;;;6.50;;
7807;SDS011;3949;49.254;8.894;2023-09-12T10:15:25;6.43;;;5.82;;
7807;SDS011;3949;49.254;8.894;2023-09-12T10:17:57;7.88;;;6.75;;
7807;SDS011;3949;49.254;8.894;2023-09-12T10:20:43;8.93;;;5.70;;
7807;SDS011;3949;49.254;8.894;2023-09-12T10:23:23;6.93;;;6.13;;
7807;SDS011;3949;49.254;8.894;2023-09-12T10:25:52;9.25;;;6.10;;
7807;SDS011;3949;49.254;8.894;2023-09-12T10:28:18;6.65;;;6.05;;
7807;SDS011;3949;49.254;8.894;2023-09-12T10:30:44;6.50;;;5.43;;
7807;SDS011;3949;49.254;8.894;2023-09-12T10:33:11;10.35;;;5.50;;
7807;SDS011;3949;49.254;8.894;2023-09-12T10:35:37;7.55;;;5.68;;
7807;SDS011;3949;49.254;8.894;2023-09-12T10:38:04;7.00;;;5.65;;
7807;SDS011;3949;49.254;8.894;2023-09-12T10:40:31;7.03;;;5.57;;
7807;SDS011;3949;49.254;8.894;2023-09-12T10:42:57;9.05;;;6.60;;
7807;SDS011;3949;49.254;8.894;2023-09-12T10:45:25;7.70;;;7.00;;
7807;SDS011;3949;49.254;8.894;2023-09-12T10:47:51;7.60;;;6.80;;
7807;SDS011;3949;49.254;8.894;2023-09-12T10:50:17;6.82;;;6.13;;
7807;SDS011;3949;49.254;8.894;2023-09-12T10:52:45;7.25;;;6.53;;
7807;SDS011;3949;49.254;8.894;2023-09-12T10:55:15;6.70;;;6.03;;
7807;SDS011;3949;49.254;8.894;2023-09-12T11:00:28;6.97;;;6.25;;
7807;SDS011;3949;49.254;8.894;2023-09-12T11:02:57;7.63;;;6.82;;
7807;SDS011;3949;49.254;8.894;2023-09-12T11:08:00;8.55;;;7.03;;
7807;SDS011;3949;49.254;8.894;2023-09-12T11:10:26;10.02;;;6.68;;
7807;SDS011;3949;49.254;8.894;2023-09-12T11:12:53;7.45;;;5.80;;
7807;SDS011;3949;49.254;8.894;2023-09-12T11:15:20;6.20;;;5.43;;
7807;SDS011;3949;49.254;8.894;2023-09-12T11:17:47;5.68;;;5.28;;
7807;SDS011;3949;49.254;8.894;2023-09-12T11:20:14;8.32;;;6.40;;
7807;SDS011;3949;49.254;8.894;2023-09-12T11:22:41;6.35;;;5.78;;
7807;SDS011;3949;49.254;8.894;2023-09-12T11:25:17;7.55;;;6.78;;
7807;SDS011;3949;49.254;8.894;2023-09-12T11:30:11;7.60;;;6.80;;
7807;SDS011;3949;49.254;8.894;2023-09-12T11:32:37;8.10;;;6.72;;
7807;SDS011;3949;49.254;8.894;2023-09-12T11:35:07;6.68;;;6.18;;
7807;SDS011;3949;49.254;8.894;2023-09-12T11:37:33;6.28;;;5.70;;
7807;SDS011;3949;49.254;8.894;2023-09-12T11:40:02;5.45;;;4.95;;
7807;SDS011;3949;49.254;8.894;2023-09-12T11:42:28;6.90;;;5.22;;
7807;SDS011;3949;49.254;8.894;2023-09-12T11:44:54;6.53;;;5.72;;
7807;SDS011;3949;49.254;8.894;2023-09-12T11:47:20;5.95;;;5.43;;
7807;SDS011;3949;49.254;8.894;2023-09-12T11:49:47;6.35;;;5.68;;
7807;SDS011;3949;49.254;8.894;2023-09-12T11:52:13;6.18;;;5.63;;
7807;SDS011;3949;49.254;8.894;2023-09-12T11:54:41;6.43;;;5.93;;
7807;SDS011;3949;49.254;8.894;2023-09-12T11:57:08;6.38;;;5.78;;
7807;SDS011;3949;49.254;8.894;2023-09-12T11:59:38;6.25;;;5.75;;
7807;SDS011;3949;49.254;8.894;2023-09-12T12:02:08;6.32;;;5.82;;
7807;SDS011;3949;49.254;8.894;2023-09-12T12:04:35;7.10;;;6.00;;
7807;SDS011;3949;49.254;8.894;2023-09-12T12:07:01;8.05;;;6.53;;
7807;SDS011;3949;49.254;8.894;2023-09-12T12:09:29;9.10;;;6.00;;
7807;SDS011;3949;49.254;8.894;2023-09-12T12:11:55;6.05;;;5.55;;
7807;SDS011;3949;49.254;8.894;2023-09-12T12:14:25;6.10;;;5.60;;
7807;SDS011;3949;49.254;8.894;2023-09-12T12:16:52;6.70;;;5.82;;
7807;SDS011;3949;49.254;8.894;2023-09-12T12:19:18;6.90;;;6.10;;
7807;SDS011;3949;49.254;8.894;2023-09-12T12:21:44;6.22;;;5.68;;
7807;SDS011;3949;49.254;8.894;2023-09-12T12:24:11;6.95;;;5.93;;
7807;SDS011;3949;49.254;8.894;2023-09-12T12:26:40;6.53;;;5.97;;
7807;SDS011;3949;49.254;8.894;2023-09-12T12:29:06;6.38;;;5.88;;
7807;SDS011;3949;49.254;8.894;2023-09-12T12:31:32;6.90;;;5.70;;
7807;SDS011;3949;49.254;8.894;2023-09-12T12:33:58;6.28;;;5.53;;
7807;SDS011;3949;49.254;8.894;2023-09-12T12:36:24;6.68;;;6.00;;
7807;SDS011;3949;49.254;8.894;2023-09-12T12:38:52;7.50;;;5.68;;
7807;SDS011;3949;49.254;8.894;2023-09-12T12:41:22;6.28;;;5.13;;
7807;SDS011;3949;49.254;8.894;2023-09-12T12:43:49;5.80;;;5.30;;
7807;SDS011;3949;49.254;8.894;2023-09-12T12:46:24;5.90;;;5.32;;
7807;SDS011;3949;49.254;8.894;2023-09-12T12:48:50;6.10;;;5.55;;
7807;SDS011;3949;49.254;8.894;2023-09-12T12:51:20;6.95;;;6.35;;
7807;SDS011;3949;49.254;8.894;2023-09-12T12:54:02;5.90;;;5.40;;
7807;SDS011;3949;49.254;8.894;2023-09-12T12:56:29;6.57;;;5.43;;
7807;SDS011;3949;49.254;8.894;2023-09-12T12:58:56;7.40;;;5.03;;
7807;SDS011;3949;49.254;8.894;2023-09-12T13:01:23;5.60;;;5.10;;
7807;SDS011;3949;49.254;8.894;2023-09-12T13:03:49;5.38;;;4.97;;
7807;SDS011;3949;49.254;8.894;2023-09-12T13:06:16;5.60;;;5.10;;
7807;SDS011;3949;49.254;8.894;2023-09-12T13:08:45;5.70;;;5.20;;
7807;SDS011;3949;49.254;8.894;2023-09-12T13:11:12;6.22;;;5.63;;
7807;SDS011;3949;49.254;8.894;2023-09-12T13:13:38;7.45;;;5.00;;
7807;SDS011;3949;49.254;8.894;2023-09-12T13:16:05;6.22;;;5.68;;
7807;SDS011;3949;49.254;8.894;2023-09-12T13:18:34;6.10;;;5.60;;
7807;SDS011;3949;49.254;8.894;2023-09-12T13:21:00;5.15;;;4.72;;
7807;SDS011;3949;49.254;8.894;2023-09-12T13:23:26;6.22;;;5.32;;
7807;SDS011;3949;49.254;8.894;2023-09-12T13:25:53;6.75;;;5.63;;
7807;SDS011;3949;49.254;8.894;2023-09-12T13:28:19;6.80;;;5.65;;
7807;SDS011;3949;49.254;8.894;2023-09-12T13:30:45;7.35;;;5.35;;
7807;SDS011;3949;49.254;8.894;2023-09-12T13:33:11;7.00;;;5.50;;
7807;SDS011;3949;49.254;8.894;2023-09-12T13:35:39;6.53;;;5.43;;
7807;SDS011;3949;49.254;8.894;2023-09-12T13:38:05;5.85;;;5.28;;
7807;SDS011;3949;49.254;8.894;2023-09-12T13:40:36;6.75;;;5.50;;
7807;SDS011;3949;49.254;8.894;2023-09-12T13:43:03;6.07;;;5.57;;
7807;SDS011;3949;49.254;8.894;2023-09-12T13:45:29;5.50;;;5.00;;
7807;SDS011;3949;49.254;8.894;2023-09-12T13:47:55;5.97;;;5.47;;
7807;SDS011;3949;49.254;8.894;2023-09-12T13:50:20;6.00;;;5.50;;
7807;SDS011;3949;49.254;8.894;2023-09-12T13:52:48;5.78;;;5.28;;
7807;SDS011;3949;49.254;8.894;2023-09-12T13:55:14;6.57;;;4.95;;
7807;SDS011;3949;49.254;8.894;2023-09-12T13:57:41;5.05;;;4.55;;
7807;SDS011;3949;49.254;8.894;2023-09-12T14:00:07;5.07;;;4.68;;
7807;SDS011;3949;49.254;8.894;2023-09-12T14:02:33;5.32;;;4.82;;
7807;SDS011;3949;49.254;8.894;2023-09-12T14:04:59;5.80;;;5.20;;
7807;SDS011;3949;49.254;8.894;2023-09-12T14:07:25;5.82;;;5.32;;
7807;SDS011;3949;49.254;8.894;2023-09-12T14:09:51;5.57;;;5.10;;
7807;SDS011;3949;49.254;8.894;2023-09-12T14:12:20;5.70;;;5.18;;
7807;SDS011;3949;49.254;8.894;2023-09-12T14:14:46;5.57;;;5.07;;
7807;SDS011;3949;49.254;8.894;2023-09-12T14:17:13;6.30;;;5.80;;
7807;SDS011;3949;49.254;8.894;2023-09-12T14:19:39;6.40;;;5.55;;
7807;SDS011;3949;49.254;8.894;2023-09-12T14:22:05;5.60;;;5.10;;
7807;SDS011;3949;49.254;8.894;2023-09-12T14:24:31;5.18;;;4.68;;
7807;SDS011;3949;49.254;8.894;2023-09-12T14:26:58;6.05;;;5.60;;
7807;SDS011;3949;49.254;8.894;2023-09-12T14:29:24;5.78;;;5.03;;
7807;SDS011;3949;49.254;8.894;2023-09-12T14:31:52;5.38;;;4.93;;
7807;SDS011;3949;49.254;8.894;2023-09-12T14:34:23;5.65;;;5.15;;
7807;SDS011;3949;49.254;8.894;2023-09-12T14:36:51;5.72;;;5.30;;
7807;SDS011;3949;49.254;8.894;2023-09-12T14:39:17;8.02;;;5.32;;
7807;SDS011;3949;49.254;8.894;2023-09-12T14:41:43;5.88;;;5.38;;
7807;SDS011;3949;49.254;8.894;2023-09-12T14:44:14;6.10;;;5.50;;
7807;SDS011;3949;49.254;8.894;2023-09-12T14:46:40;6.82;;;6.22;;
7807;SDS011;3949;49.254;8.894;2023-09-12T14:49:07;7.90;;;7.20;;
7807;SDS011;3949;49.254;8.894;2023-09-12T14:51:35;5.90;;;5.40;;
7807;SDS011;3949;49.254;8.894;2023-09-12T14:54:04;5.47;;;4.97;;
7807;SDS011;3949;49.254;8.894;2023-09-12T14:56:31;5.13;;;4.55;;
7807;SDS011;3949;49.254;8.894;2023-09-12T14:58:57;5.75;;;5.25;;
7807;SDS011;3949;49.254;8.894;2023-09-12T15:01:23;6.80;;;5.57;;
7807;SDS011;3949;49.254;8.894;2023-09-12T15:03:49;6.05;;;5.32;;
7807;SDS011;3949;49.254;8.894;2023-09-12T15:06:16;6.20;;;5.65;;
7807;SDS011;3949;49.254;8.894;2023-09-12T15:08:42;6.95;;;5.70;;
7807;SDS011;3949;49.254;8.894;2023-09-12T15:11:08;6.15;;;5.55;;
7807;SDS011;3949;49.254;8.894;2023-09-12T15:13:34;6.30;;;5.28;;
7807;SDS011;3949;49.254;8.894;2023-09-12T15:16:00;5.85;;;5.32;;
7807;SDS011;3949;49.254;8.894;2023-09-12T15:18:26;6.18;;;5.60;;
7807;SDS011;3949;49.254;8.894;2023-09-12T15:20:53;5.72;;;5.20;;
7807;SDS011;3949;49.254;8.894;2023-09-12T15:23:19;5.90;;;5.40;;